Time;durP1;ratioP1;P1;durP2;ratioP2;P2;SDS_P1;SDS_P2;PMS_P1;PMS_P2;Temp;Humidity;BMP_temperature;BMP_pressure;BME280_temperature;BME280_humidity;BME280_pressure;Samples;Min_cycle;Max_cycle;Signal;HPM_P1;HPM_P2
2022/07/06 00:01:24;;;;;;;3.10;2.22;;;;;;;25.68;37.97;100195.56;4158196;28;20221;-68
2022/07/06 00:03:25;;;;;;;9.07;2.40;;;;;;;25.32;38.52;100194.97;4157015;28;20330;-69
2022/07/06 00:05:27;;;;;;;7.05;2.17;;;;;;;25.49;38.17;100198.59;4156543;28;20229;-69
2022/07/06 00:07:30;;;;;;;2.88;2.08;;;;;;;25.22;38.79;100206.50;4146790;28;20250;-69
2022/07/06 00:09:32;;;;;;;3.28;2.22;;;;;;;25.24;38.47;100202.50;4143199;28;20241;-69
2022/07/06 00:11:34;;;;;;;3.63;2.40;;;;;;;25.20;38.88;100198.59;4144787;28;20253;-69
2022/07/06 00:13:36;;;;;;;4.20;2.22;;;;;;;24.99;38.85;100194.69;4145378;28;20263;-69
2022/07/06 00:15:38;;;;;;;3.13;2.33;;;;;;;25.02;39.12;100194.22;4144101;28;20392;-69
2022/07/06 00:17:39;;;;;;;2.97;2.30;;;;;;;24.99;39.01;100194.69;4144329;28;20237;-69
2022/07/06 00:19:41;;;;;;;4.53;2.58;;;;;;;24.85;39.21;100196.06;4145405;28;20232;-68
2022/07/06 00:21:43;;;;;;;5.57;2.15;;;;;;;24.95;38.83;100195.44;4151533;28;20229;-68
2022/07/06 00:23:44;;;;;;;5.13;2.45;;;;;;;24.55;39.64;100193.53;4145328;28;20283;-69
2022/07/06 00:25:47;;;;;;;3.80;2.17;;;;;;;24.84;39.39;100194.41;4144721;28;20237;-68
2022/07/06 00:27:49;;;;;;;3.85;1.98;;;;;;;24.98;38.98;100200.38;4144570;28;20290;-68
2022/07/06 00:29:51;;;;;;;5.28;2.60;;;;;;;24.97;39.11;100196.84;4144853;28;20241;-69
2022/07/06 00:31:52;;;;;;;2.33;2.17;;;;;;;24.91;39.42;100197.81;4145074;28;20229;-70
2022/07/06 00:33:54;;;;;;;4.10;2.53;;;;;;;24.71;39.64;100202.84;4143926;28;20241;-69
2022/07/06 00:35:56;;;;;;;4.45;2.05;;;;;;;24.09;41.38;100198.81;4143677;28;20241;-69
2022/07/06 00:37:57;;;;;;;3.17;2.70;;;;;;;24.13;41.12;100200.00;4144617;28;20268;-69
2022/07/06 00:39:59;;;;;;;5.75;2.20;;;;;;;24.11;41.48;100200.25;4144467;28;20764;-69
2022/07/06 00:42:01;;;;;;;2.15;1.90;;;;;;;23.53;42.45;100179.31;4145394;28;20241;-69
2022/07/06 00:44:07;;;;;;;3.90;2.00;;;;;;;23.97;41.77;100177.09;4145247;28;20291;-68
2022/07/06 00:46:09;;;;;;;2.65;2.00;;;;;;;23.56;42.12;100176.16;4143363;28;20229;-68
2022/07/06 00:48:12;;;;;;;2.67;2.10;;;;;;;23.42;42.75;100164.69;4145430;28;20237;-69
2022/07/06 00:50:18;;;;;;;3.30;2.22;;;;;;;24.15;41.55;100159.00;4156143;28;20233;-70
2022/07/06 00:52:19;;;;;;;3.25;2.65;;;;;;;24.54;41.38;100181.84;4159776;28;20908;-69
2022/07/06 00:54:21;;;;;;;2.67;2.47;;;;;;;24.55;41.41;100185.38;4160683;28;20232;-69
2022/07/06 00:56:25;;;;;;;2.92;2.20;;;;;;;24.43;41.69;100183.53;4160067;28;20705;-68
2022/07/06 00:58:26;;;;;;;4.07;2.45;;;;;;;24.71;40.66;100183.81;4160773;28;20725;-70
2022/07/06 01:00:29;;;;;;;1.92;1.83;;;;;;;23.55;43.15;100197.06;4161430;28;20233;-69
2022/07/06 01:02:34;;;;;;;3.45;2.42;;;;;;;23.50;43.03;100177.06;4159010;28;20713;-69
2022/07/06 01:04:39;;;;;;;3.38;2.30;;;;;;;23.26;43.05;100177.03;4163846;28;20236;-69
2022/07/06 01:06:41;;;;;;;2.17;1.90;;;;;;;23.66;42.55;100165.56;4160559;28;20343;-69
2022/07/06 01:08:43;;;;;;;2.20;1.77;;;;;;;24.10;42.23;100187.72;4144556;28;20237;-69
2022/07/06 01:10:44;;;;;;;5.82;2.22;;;;;;;23.68;43.25;100182.41;4144540;28;20295;-69
2022/07/06 01:12:47;;;;;;;6.28;2.58;;;;;;;24.15;42.78;100172.59;4144748;28;20629;-69
2022/07/06 01:14:49;;;;;;;4.28;2.30;;;;;;;23.60;43.91;100177.34;4142561;28;20666;-69
2022/07/06 01:16:51;;;;;;;2.70;2.15;;;;;;;23.96;43.19;100167.31;4144423;28;20807;-69
2022/07/06 01:18:53;;;;;;;2.63;2.17;;;;;;;24.11;42.25;100183.13;4144683;28;20915;-69
2022/07/06 01:21:11;;;;;;;4.85;2.40;;;;;;;25.36;39.93;100177.94;4149873;28;20229;-69
2022/07/06 01:23:13;;;;;;;3.05;2.33;;;;;;;25.14;40.17;100196.03;4143575;28;20267;-69
2022/07/06 01:25:15;;;;;;;2.78;2.40;;;;;;;24.79;40.17;100192.44;4143422;28;20376;-68
2022/07/06 01:27:17;;;;;;;4.18;2.20;;;;;;;24.10;41.30;100200.47;4142004;28;20232;-68
2022/07/06 01:29:19;;;;;;;3.08;2.10;;;;;;;24.31;40.31;100201.75;4144128;28;20225;-69
2022/07/06 01:31:23;;;;;;;2.80;2.00;;;;;;;23.57;42.81;100194.94;4143918;28;20283;-69
2022/07/06 01:33:25;;;;;;;2.17;1.90;;;;;;;22.81;43.68;100197.28;4143551;28;20230;-69
2022/07/06 01:35:30;;;;;;;2.45;2.25;;;;;;;22.65;44.01;100176.22;4142946;28;20311;-69
2022/07/06 01:37:31;;;;;;;2.78;2.17;;;;;;;23.04;43.39;100171.31;4142442;28;20275;-69
2022/07/06 01:39:33;;;;;;;3.45;2.30;;;;;;;23.43;43.36;100171.75;4143969;28;20229;-70
2022/07/06 01:41:35;;;;;;;2.53;2.10;;;;;;;23.32;43.83;100175.28;4143874;28;20434;-69
2022/07/06 01:43:37;;;;;;;2.40;2.00;;;;;;;23.21;44.35;100179.63;4142110;28;20698;-70
2022/07/06 01:45:38;;;;;;;3.88;2.20;;;;;;;22.21;46.29;100175.50;4143450;28;20241;-69
2022/07/06 01:47:40;;;;;;;2.30;2.00;;;;;;;22.04;46.56;100167.97;4143978;28;20292;-69
2022/07/06 01:49:42;;;;;;;4.32;2.30;;;;;;;21.99;46.86;100162.41;4150800;28;20232;-69
2022/07/06 01:51:43;;;;;;;2.47;2.05;;;;;;;22.42;45.80;100145.28;4149486;28;20229;-68
2022/07/06 01:53:45;;;;;;;3.58;2.58;;;;;;;22.64;45.14;100161.84;4143367;28;20260;-69
2022/07/06 01:55:47;;;;;;;4.68;2.40;;;;;;;22.51;45.93;100166.59;4142414;28;20306;-69
2022/07/06 01:57:49;;;;;;;3.80;2.42;;;;;;;22.76;45.19;100172.75;4143231;28;20238;-68
2022/07/06 01:59:50;;;;;;;2.85;2.38;;;;;;;22.94;44.75;100173.78;4143601;28;20237;-69
2022/07/06 02:01:52;;;;;;;3.80;2.55;;;;;;;22.60;45.56;100176.91;4142059;28;20249;-69
2022/07/06 02:03:54;;;;;;;2.88;2.50;;;;;;;21.97;46.86;100190.75;4143101;28;20278;-68
2022/07/06 02:05:55;;;;;;;2.88;2.58;;;;;;;21.97;46.84;100179.94;4142813;28;20247;-69
2022/07/06 02:07:57;;;;;;;3.78;2.70;;;;;;;22.19;46.26;100166.78;4131704;28;20241;-69
2022/07/06 02:09:59;;;;;;;2.90;2.20;;;;;;;22.20;46.41;100177.38;4145550;28;20298;-69
2022/07/06 02:12:00;;;;;;;3.17;2.30;;;;;;;22.09;46.60;100167.28;4158600;28;20725;-69
2022/07/06 02:14:02;;;;;;;3.42;2.17;;;;;;;22.31;46.12;100158.75;4159297;28;20290;-69
2022/07/06 02:16:04;;;;;;;4.75;2.78;;;;;;;23.21;44.43;100168.78;4158970;28;20286;-70
2022/07/06 02:18:07;;;;;;;2.75;2.20;;;;;;;22.91;44.23;100191.31;4158654;28;20630;-69
2022/07/06 02:20:09;;;;;;;2.50;2.15;;;;;;;22.89;44.83;100185.28;4158702;28;20225;-69
2022/07/06 02:22:10;;;;;;;3.17;2.33;;;;;;;22.16;46.11;100199.72;4147559;28;20290;-68
2022/07/06 02:24:12;;;;;;;4.60;2.63;;;;;;;22.56;45.37;100199.28;4142194;28;20233;-69
2022/07/06 02:26:14;;;;;;;3.43;2.30;;;;;;;22.19;46.25;100178.44;4142744;28;20287;-69
2022/07/06 02:28:15;;;;;;;3.20;2.83;;;;;;;23.08;44.30;100180.66;4143061;28;20253;-69
2022/07/06 02:30:17;;;;;;;3.33;2.63;;;;;;;22.51;45.87;100196.41;4143741;28;20612;-69
2022/07/06 02:32:19;;;;;;;4.15;2.80;;;;;;;22.39;45.70;100183.66;4142589;28;20686;-68
2022/07/06 02:34:21;;;;;;;3.40;2.63;;;;;;;21.73;47.04;100207.63;4143522;28;20233;-69
2022/07/06 02:36:22;;;;;;;2.80;2.60;;;;;;;21.96;47.18;100189.91;4141438;28;20294;-69
2022/07/06 02:38:24;;;;;;;2.53;2.33;;;;;;;22.10;46.20;100187.88;4156612;28;20293;-69
2022/07/06 02:40:27;;;;;;;6.50;2.70;;;;;;;21.58;47.76;100195.44;4157449;28;20244;-69
2022/07/06 02:42:28;;;;;;;4.00;2.40;;;;;;;21.78;46.84;100184.47;4158634;28;20297;-69
2022/07/06 02:44:30;;;;;;;2.70;2.50;;;;;;;21.81;46.88;100197.56;4159084;28;20263;-69
2022/07/06 02:46:31;;;;;;;4.20;2.78;;;;;;;21.30;48.13;100202.13;4158446;28;20241;-68
2022/07/06 02:48:33;;;;;;;3.00;2.70;;;;;;;21.66;46.91;100204.16;4153328;28;20287;-69
2022/07/06 02:50:35;;;;;;;3.90;2.40;;;;;;;21.45;47.82;100193.69;4157548;28;20287;-69
2022/07/06 02:52:37;;;;;;;4.07;2.37;;;;;;;21.65;47.13;100183.56;4158881;28;20671;-69
2022/07/06 02:54:41;;;;;;;5.53;2.40;;;;;;;21.81;46.91;100192.97;4158318;28;20237;-69
2022/07/06 02:56:44;;;;;;;5.53;2.60;;;;;;;22.64;45.26;100209.78;4159360;28;20244;-69
2022/07/06 02:58:46;;;;;;;3.50;2.60;;;;;;;22.44;45.53;100204.66;4133398;28;20534;-69
2022/07/06 03:00:47;;;;;;;3.13;2.77;;;;;;;22.59;44.82;100231.34;4142753;28;20724;-70
2022/07/06 03:02:49;;;;;;;2.70;2.50;;;;;;;22.48;45.65;100219.38;4141944;28;20229;-69
2022/07/06 03:04:51;;;;;;;2.90;2.70;;;;;;;22.82;44.49;100227.91;4141000;28;20251;-69
2022/07/06 03:06:53;;;;;;;3.83;2.43;;;;;;;22.62;44.80;100242.56;4142958;28;20233;-69
2022/07/06 03:08:54;;;;;;;3.20;2.70;;;;;;;22.23;45.54;100249.22;4143270;28;20722;-69
2022/07/06 03:10:56;;;;;;;3.33;2.70;;;;;;;21.60;47.32;100244.78;4142128;28;20229;-69
2022/07/06 03:12:57;;;;;;;3.07;2.80;;;;;;;21.48;47.45;100231.13;4142574;28;20295;-69
2022/07/06 03:14:59;;;;;;;3.13;2.70;;;;;;;22.19;46.16;100248.84;4141543;28;20245;-68
2022/07/06 03:17:01;;;;;;;3.23;2.77;;;;;;;21.95;46.20;100253.25;4142303;28;20229;-69
2022/07/06 03:19:02;;;;;;;3.70;2.93;;;;;;;21.43;47.36;100247.19;4142892;28;20333;-69
2022/07/06 03:21:04;;;;;;;3.10;2.80;;;;;;;21.57;46.69;100248.75;4149016;28;20310;-69
2022/07/06 03:23:06;;;;;;;6.93;3.00;;;;;;;21.36;46.89;100256.16;4142225;28;20524;-70
2022/07/06 03:25:08;;;;;;;3.40;2.50;;;;;;;21.99;45.51;100243.63;4141532;28;20237;-70
2022/07/06 03:27:10;;;;;;;5.00;2.80;;;;;;;22.39;44.79;100250.53;4142261;28;20225;-69
2022/07/06 03:29:11;;;;;;;3.43;2.40;;;;;;;21.79;46.37;100251.91;4142670;28;20291;-70
2022/07/06 03:31:13;;;;;;;4.60;2.77;;;;;;;21.76;46.18;100262.38;4143089;28;20267;-69
2022/07/06 03:33:15;;;;;;;3.40;2.33;;;;;;;21.96;46.02;100260.31;4141886;28;20229;-69
2022/07/06 03:35:16;;;;;;;4.20;3.00;;;;;;;22.48;44.78;100267.34;4142342;28;20244;-68
2022/07/06 03:37:18;;;;;;;3.27;2.97;;;;;;;22.73;44.21;100264.56;4143212;28;20229;-69
2022/07/06 03:39:20;;;;;;;4.17;3.27;;;;;;;22.83;44.06;100271.06;4141923;28;20659;-69
2022/07/06 03:41:21;;;;;;;3.90;3.00;;;;;;;22.83;43.92;100268.38;4142623;28;20317;-69
2022/07/06 03:43:23;;;;;;;5.67;3.40;;;;;;;21.62;46.53;100285.97;4141742;28;20229;-69
2022/07/06 03:45:25;;;;;;;3.50;2.60;;;;;;;21.05;48.07;100281.31;4143298;28;20291;-70
2022/07/06 03:47:26;;;;;;;5.00;2.47;;;;;;;21.10;47.87;100267.13;4146191;28;20234;-70
2022/07/06 03:49:28;;;;;;;5.30;3.00;;;;;;;20.93;48.14;100264.91;4152001;28;20237;-69
2022/07/06 03:51:30;;;;;;;3.63;3.03;;;;;;;21.27;47.49;100262.06;4160951;28;20236;-69
2022/07/06 03:53:32;;;;;;;3.63;3.00;;;;;;;21.34;47.45;100246.59;4159827;28;20431;-69
2022/07/06 03:55:33;;;;;;;3.80;2.80;;;;;;;20.89;48.51;100266.38;4160884;28;20235;-69
2022/07/06 03:57:35;;;;;;;5.80;2.70;;;;;;;21.28;47.18;100263.72;4161170;28;20666;-69
2022/07/06 03:59:36;;;;;;;3.40;2.87;;;;;;;21.54;46.63;100260.84;4162588;28;20225;-69
2022/07/06 04:01:38;;;;;;;3.30;2.77;;;;;;;21.85;46.08;100252.91;4161434;28;20232;-69
2022/07/06 04:03:40;;;;;;;3.47;3.00;;;;;;;21.48;46.57;100274.41;4160905;28;20239;-69
2022/07/06 04:05:42;;;;;;;5.00;2.73;;;;;;;22.26;45.34;100259.63;4161300;28;20236;-69
2022/07/06 04:07:43;;;;;;;6.60;2.90;;;;;;;22.33;45.09;100270.41;4147105;28;20768;-69
2022/07/06 04:09:45;;;;;;;3.53;2.70;;;;;;;21.96;45.80;100289.28;4145926;28;20307;-69
2022/07/06 04:11:46;;;;;;;3.83;3.43;;;;;;;21.94;46.31;100283.25;4137600;28;20233;-69
2022/07/06 04:13:48;;;;;;;3.20;2.77;;;;;;;21.72;46.23;100281.75;4144378;28;20303;-69
2022/07/06 04:15:50;;;;;;;4.80;3.00;;;;;;;21.90;45.88;100291.00;4144498;28;20720;-69
2022/07/06 04:17:51;;;;;;;3.90;2.80;;;;;;;20.77;47.67;100308.66;4145176;28;20233;-68
2022/07/06 04:19:53;;;;;;;5.17;2.83;;;;;;;21.26;47.44;100282.03;4144588;28;20617;-69
2022/07/06 04:21:55;;;;;;;4.10;3.20;;;;;;;21.65;46.17;100280.97;4151538;28;20233;-68
2022/07/06 04:23:57;;;;;;;3.40;2.90;;;;;;;20.95;47.24;100295.28;4138426;28;20229;-68
2022/07/06 04:25:58;;;;;;;5.87;3.27;;;;;;;20.42;48.38;100290.03;4143430;28;20243;-69
2022/07/06 04:28:00;;;;;;;4.97;2.97;;;;;;;20.67;48.85;100284.78;4145368;28;20237;-69
2022/07/06 04:30:04;;;;;;;5.17;3.10;;;;;;;20.93;48.68;100275.72;4144963;28;20236;-70
2022/07/06 04:32:06;;;;;;;3.30;3.00;;;;;;;20.70;48.48;100286.19;4145643;28;22169;-69
2022/07/06 04:34:07;;;;;;;4.10;3.10;;;;;;;21.01;48.49;100274.69;4147952;28;20233;-69
2022/07/06 04:36:10;;;;;;;5.07;3.13;;;;;;;20.66;49.37;100285.81;4145094;28;20811;-69
2022/07/06 04:38:11;;;;;;;3.97;3.57;;;;;;;20.58;49.46;100286.03;4144518;28;20663;-69
2022/07/06 04:40:14;;;;;;;3.23;2.93;;;;;;;21.21;48.46;100271.03;4144879;28;20233;-69
2022/07/06 04:42:19;;;;;;;3.03;2.73;;;;;;;21.84;46.60;100286.44;4143725;28;20249;-68
2022/07/06 04:44:21;;;;;;;6.80;2.93;;;;;;;21.30;47.88;100311.13;4144481;28;21094;-70
2022/07/06 04:46:22;;;;;;;4.63;3.33;;;;;;;21.47;48.16;100302.50;4144397;28;20319;-69
2022/07/06 04:48:24;;;;;;;4.53;2.80;;;;;;;21.44;47.54;100311.06;4143961;28;20295;-69
2022/07/06 04:50:27;;;;;;;4.10;2.70;;;;;;;22.25;46.14;100296.72;4157651;28;20232;-69
2022/07/06 04:52:28;;;;;;;5.63;3.20;;;;;;;22.42;45.79;100318.66;4161109;28;20225;-69
2022/07/06 04:54:30;;;;;;;4.83;3.20;;;;;;;22.09;46.90;100316.22;4160473;28;20236;-69
2022/07/06 04:56:32;;;;;;;3.80;3.17;;;;;;;21.89;47.44;100309.09;4160440;28;20628;-70
2022/07/06 04:58:33;;;;;;;3.63;2.80;;;;;;;21.57;48.65;100321.78;4161281;28;20286;-69
2022/07/06 05:00:35;;;;;;;3.30;2.93;;;;;;;21.19;50.19;100319.91;4160311;28;20278;-69
2022/07/06 05:02:37;;;;;;;6.17;3.00;;;;;;;21.89;48.65;100300.16;4160469;28;20952;-69
2022/07/06 05:04:39;;;;;;;6.20;3.50;;;;;;;22.51;46.37;100302.94;4159375;28;20248;-69
2022/07/06 05:06:40;;;;;;;6.90;3.37;;;;;;;22.05;47.65;100317.72;4155147;28;20237;-69
2022/07/06 05:08:42;;;;;;;6.40;3.63;;;;;;;22.16;47.87;100311.56;4144755;28;20246;-70
2022/07/06 05:10:44;;;;;;;3.80;3.10;;;;;;;22.48;47.50;100307.97;4144601;28;20290;-70
2022/07/06 05:12:45;;;;;;;5.80;3.47;;;;;;;22.61;47.42;100319.50;4143745;28;20776;-68
2022/07/06 05:14:47;;;;;;;4.37;3.20;;;;;;;22.55;47.29;100320.38;4136726;28;20245;-69
2022/07/06 05:16:48;;;;;;;4.10;3.07;;;;;;;23.09;45.92;100326.06;4144764;28;20241;-69
2022/07/06 05:18:50;;;;;;;4.33;3.10;;;;;;;22.88;46.30;100332.75;4144186;28;20241;-69
2022/07/06 05:20:52;;;;;;;4.73;3.30;;;;;;;23.20;45.74;100324.47;4151786;28;20294;-70
2022/07/06 05:22:53;;;;;;;4.70;3.00;;;;;;;22.95;45.61;100338.97;4143231;28;20226;-69
2022/07/06 05:24:55;;;;;;;4.93;3.13;;;;;;;23.16;45.55;100340.34;4143692;28;20237;-69
2022/07/06 05:26:57;;;;;;;8.80;3.30;;;;;;;23.00;46.01;100343.69;4144241;28;20233;-69
2022/07/06 05:28:59;;;;;;;6.13;2.80;;;;;;;22.99;45.80;100344.75;4143856;28;20251;-69
2022/07/06 05:31:00;;;;;;;5.50;2.93;;;;;;;23.00;45.32;100333.69;4144474;28;20582;-70
2022/07/06 05:33:02;;;;;;;3.97;3.00;;;;;;;23.50;44.53;100340.75;4144169;28;20306;-69
2022/07/06 05:35:04;;;;;;;6.10;3.07;;;;;;;23.33;44.56;100351.44;4145003;28;20237;-69
2022/07/06 05:37:26;;;;;;;4.77;2.77;;;;;;;23.14;44.38;100353.31;4159380;28;20578;-69
2022/07/06 05:39:27;;;;;;;5.33;2.80;;;;;;;23.23;44.18;100351.13;4160447;28;20259;-69
2022/07/06 05:41:29;;;;;;;6.40;3.27;;;;;;;22.84;44.61;100356.78;4154312;28;20615;-70
2022/07/06 05:43:32;;;;;;;6.23;3.23;;;;;;;22.91;44.29;100364.00;4144125;28;20316;-69
2022/07/06 05:45:34;;;;;;;4.10;3.00;;;;;;;22.63;44.73;100362.66;4142820;28;20237;-68
2022/07/06 05:50:14;;;;;;;4.33;2.77;;;;;;;22.92;43.89;100368.38;4145992;28;20291;-69
2022/07/06 05:52:15;;;;;;;4.07;2.93;;;;;;;23.44;43.18;100355.22;4151199;28;20282;-69
2022/07/06 05:54:17;;;;;;;5.25;3.08;;;;;;;23.20;43.37;100362.44;4154987;28;20594;-70
2022/07/06 05:56:19;;;;;;;3.65;2.88;;;;;;;23.26;43.73;100360.69;4143194;28;20260;-69
2022/07/06 05:58:20;;;;;;;5.37;3.10;;;;;;;22.90;43.98;100362.38;4143312;28;20225;-69
2022/07/06 06:00:24;;;;;;;4.57;2.80;;;;;;;23.09;44.48;100366.75;4143948;28;20233;-69
2022/07/06 06:02:25;;;;;;;4.87;3.00;;;;;;;22.74;44.48;100370.03;4142836;28;20299;-70
2022/07/06 06:04:27;;;;;;;5.97;3.23;;;;;;;22.89;43.97;100368.81;4142666;28;20237;-68
2022/07/06 06:06:31;;;;;;;5.77;3.00;;;;;;;23.16;43.90;100359.34;4143063;28;20237;-69
2022/07/06 06:08:32;;;;;;;3.90;3.20;;;;;;;23.23;44.04;100361.97;4142703;28;20241;-69
2022/07/06 06:10:34;;;;;;;4.13;2.97;;;;;;;23.47;43.82;100354.78;4144123;28;20291;-69
2022/07/06 06:12:37;;;;;;;8.30;3.30;;;;;;;22.61;45.41;100362.88;4144036;28;20233;-69
2022/07/06 06:14:38;;;;;;;5.67;3.20;;;;;;;21.95;46.42;100368.81;4141422;28;20237;-69
2022/07/06 06:16:40;;;;;;;3.03;2.73;;;;;;;22.54;45.79;100355.84;4143464;28;20307;-69
2022/07/06 06:18:42;;;;;;;5.35;2.70;;;;;;;22.62;45.13;100355.56;4143360;28;20664;-69
2022/07/06 06:20:44;;;;;;;4.90;2.90;;;;;;;22.75;45.27;100355.41;4149204;28;20240;-69
2022/07/06 06:22:59;;;;;;;3.38;2.65;;;;;;;22.73;45.17;100351.28;4142640;28;20291;-69
2022/07/06 06:25:01;;;;;;;5.80;2.90;;;;;;;23.29;44.43;100354.81;4142878;28;20233;-69
2022/07/06 06:27:03;;;;;;;4.97;2.88;;;;;;;22.67;44.79;100357.59;4142793;28;20264;-69
2022/07/06 06:29:04;;;;;;;5.82;2.90;;;;;;;23.51;43.63;100358.69;4143725;28;20237;-70
2022/07/06 06:31:06;;;;;;;6.37;3.07;;;;;;;23.58;43.61;100362.16;4143243;28;20237;-69
2022/07/06 06:33:16;;;;;;;2.92;2.60;;;;;;;23.76;43.13;100371.31;4141795;28;20694;-68
2022/07/06 06:35:18;;;;;;;5.57;3.10;;;;;;;22.97;43.43;100372.09;4142560;28;20232;-67
2022/07/06 06:37:19;;;;;;;3.42;2.92;;;;;;;23.71;42.06;100373.91;4143622;28;20718;-68
2022/07/06 06:39:21;;;;;;;4.50;3.00;;;;;;;22.99;43.30;100383.53;4143150;28;20225;-67
2022/07/06 06:41:22;;;;;;;4.43;2.80;;;;;;;22.37;45.01;100379.97;4143077;28;20792;-68
2022/07/06 06:43:24;;;;;;;3.95;3.08;;;;;;;22.66;43.65;100362.19;4142692;28;20295;-71
2022/07/06 06:45:26;;;;;;;3.63;3.03;;;;;;;22.48;44.15;100370.31;4142269;28;20374;-69
2022/07/06 06:47:28;;;;;;;5.03;3.03;;;;;;;22.81;44.09;100376.22;4143706;28;20279;-69
2022/07/06 06:49:29;;;;;;;3.57;2.67;;;;;;;23.23;43.94;100361.97;4148454;28;20240;-71
2022/07/06 06:51:31;;;;;;;4.45;2.97;;;;;;;22.31;44.36;100376.28;4158999;28;20228;-70
2022/07/06 06:53:33;;;;;;;4.27;2.67;;;;;;;22.17;44.26;100380.97;4158683;28;20756;-70
2022/07/06 06:55:40;;;;;;;6.28;2.90;;;;;;;22.36;45.20;100364.78;4157217;28;20721;-70
2022/07/06 06:57:42;;;;;;;3.70;2.73;;;;;;;22.52;45.07;100361.47;4144052;28;20255;-71
2022/07/06 06:59:44;;;;;;;4.70;2.87;;;;;;;22.12;45.25;100374.53;4143105;28;20293;-70
2022/07/06 07:01:46;;;;;;;4.37;2.90;;;;;;;22.48;45.42;100356.75;4142059;28;20233;-69
2022/07/06 07:03:56;;;;;;;3.30;2.60;;;;;;;23.26;43.69;100339.00;4142258;28;20233;-70
2022/07/06 07:05:58;;;;;;;4.07;2.90;;;;;;;22.17;45.08;100363.84;4141660;28;20617;-70
2022/07/06 07:08:00;;;;;;;3.87;3.00;;;;;;;22.71;44.77;100358.78;4142433;28;20236;-68
2022/07/06 07:10:06;;;;;;;5.13;3.10;;;;;;;22.49;44.49;100374.66;4142949;28;20237;-70
2022/07/06 07:12:10;;;;;;;5.40;3.05;;;;;;;22.70;44.19;100368.00;4142579;28;20229;-70
2022/07/06 07:14:11;;;;;;;4.50;2.97;;;;;;;22.55;44.51;100371.06;4142223;28;20241;-69
2022/07/06 07:16:13;;;;;;;3.53;2.80;;;;;;;22.61;44.66;100370.19;4141313;28;20339;-69
2022/07/06 07:18:15;;;;;;;5.83;2.90;;;;;;;22.81;44.14;100364.53;4141958;28;20312;-70
2022/07/06 07:20:17;;;;;;;7.23;3.03;;;;;;;22.55;44.36;100373.78;4149617;28;20262;-69
2022/07/06 07:22:18;;;;;;;6.22;3.45;;;;;;;22.52;44.22;100366.91;4149301;28;20698;-68
2022/07/06 07:24:20;;;;;;;4.78;2.47;;;;;;;23.29;44.17;100354.81;4144891;28;20233;-70
2022/07/06 07:26:22;;;;;;;5.50;2.87;;;;;;;22.54;44.49;100369.38;4145112;28;20241;-69
2022/07/06 07:28:24;;;;;;;7.13;2.90;;;;;;;22.63;45.25;100362.66;4151546;28;20236;-69
2022/07/06 07:30:26;;;;;;;4.47;2.70;;;;;;;22.67;44.40;100366.56;4161870;28;20236;-69
2022/07/06 07:32:28;;;;;;;5.97;3.13;;;;;;;22.48;44.44;100381.16;4162344;28;20236;-69
2022/07/06 07:34:29;;;;;;;4.75;3.10;;;;;;;22.41;44.25;100370.38;4161028;28;20240;-69
2022/07/06 07:36:31;;;;;;;4.65;3.05;;;;;;;22.05;45.42;100383.53;4160763;28;20701;-70
2022/07/06 07:38:33;;;;;;;3.60;2.67;;;;;;;22.99;43.79;100355.59;4162741;28;20240;-70
2022/07/06 07:40:35;;;;;;;5.07;2.70;;;;;;;22.77;44.72;100360.63;4162704;28;20351;-70
2022/07/06 07:42:40;;;;;;;3.97;2.67;;;;;;;23.23;43.32;100356.53;4160200;28;20244;-70
2022/07/06 07:44:42;;;;;;;9.23;3.00;;;;;;;22.96;44.03;100362.31;4161069;28;20236;-67
2022/07/06 07:46:44;;;;;;;3.92;2.30;;;;;;;23.07;44.37;100373.47;4161545;28;20244;-70
2022/07/06 07:48:45;;;;;;;4.25;2.50;;;;;;;23.51;42.72;100364.09;4152949;28;20276;-69
2022/07/06 07:50:47;;;;;;;5.60;2.70;;;;;;;23.13;42.39;100372.53;4161179;28;20232;-70
2022/07/06 07:52:49;;;;;;;6.15;2.70;;;;;;;23.06;43.37;100371.78;4161052;28;20282;-69
2022/07/06 07:54:52;;;;;;;4.38;2.50;;;;;;;23.57;42.79;100363.22;4161639;28;20286;-70
2022/07/06 07:57:13;;;;;;;4.53;2.42;;;;;;;22.94;43.30;100364.41;4161512;28;20342;-69
2022/07/06 07:59:15;;;;;;;5.18;2.95;;;;;;;23.56;43.58;100349.88;4161406;28;20279;-70
2022/07/06 08:01:17;;;;;;;4.70;2.60;;;;;;;22.95;44.27;100355.22;4162070;28;20232;-70
2022/07/06 08:03:18;;;;;;;5.53;2.65;;;;;;;23.08;44.79;100358.81;4161555;28;20319;-70
2022/07/06 08:05:20;;;;;;;7.13;3.17;;;;;;;23.01;43.25;100358.91;4160241;28;20232;-69
2022/07/06 08:07:22;;;;;;;4.32;2.40;;;;;;;23.89;42.54;100343.94;4150703;28;20283;-70
2022/07/06 08:09:24;;;;;;;4.45;2.80;;;;;;;23.75;42.64;100359.63;4145972;28;20272;-69
2022/07/06 08:11:25;;;;;;;5.57;2.63;;;;;;;24.31;41.33;100353.94;4144475;28;20229;-69
2022/07/06 08:13:27;;;;;;;4.65;2.58;;;;;;;23.09;42.83;100366.75;4145022;28;20233;-68
2022/07/06 08:15:29;;;;;;;3.88;2.40;;;;;;;23.08;43.66;100370.53;4144071;28;20240;-69
2022/07/06 08:17:30;;;;;;;5.00;2.65;;;;;;;23.36;43.81;100358.25;4144903;28;20241;-70
2022/07/06 08:19:32;;;;;;;6.18;2.50;;;;;;;23.57;42.73;100352.38;4145200;28;20239;-70
2022/07/06 08:21:34;;;;;;;9.85;2.88;;;;;;;23.30;43.83;100349.16;4151876;28;20325;-70
2022/07/06 08:23:35;;;;;;;3.53;2.40;;;;;;;23.62;42.63;100348.13;4144441;28;21079;-69
2022/07/06 08:25:37;;;;;;;4.93;2.30;;;;;;;23.75;43.12;100347.91;4144705;28;20284;-70
2022/07/06 08:27:40;;;;;;;6.55;3.28;;;;;;;23.88;42.38;100342.28;4144388;28;20248;-70
2022/07/06 08:29:42;;;;;;;8.70;2.70;;;;;;;23.22;42.91;100354.91;4144665;28;20237;-70
2022/07/06 08:31:44;;;;;;;5.13;2.60;;;;;;;23.74;42.84;100351.72;4144614;28;20280;-70
2022/07/06 08:33:57;;;;;;;4.53;2.45;;;;;;;24.44;41.20;100342.00;4142585;28;20358;-70
2022/07/06 08:35:59;;;;;;;5.30;3.13;;;;;;;24.60;41.23;100349.44;4143963;28;20229;-71
2022/07/06 08:38:00;;;;;;;4.57;2.50;;;;;;;24.27;41.01;100369.06;4146044;28;20245;-70
2022/07/06 08:40:03;;;;;;;5.93;2.50;;;;;;;23.89;42.77;100365.69;4144492;28;20710;-70
2022/07/06 08:42:07;;;;;;;4.60;2.65;;;;;;;23.38;42.58;100365.13;4145142;28;20237;-70
2022/07/06 08:44:09;;;;;;;3.63;2.30;;;;;;;23.60;42.00;100363.81;4144659;28;20275;-71
2022/07/06 08:46:14;;;;;;;5.45;2.33;;;;;;;24.15;41.85;100355.44;4143973;28;20295;-70
2022/07/06 08:48:17;;;;;;;7.95;2.45;;;;;;;23.72;43.25;100368.22;4144466;28;20474;-70
2022/07/06 08:50:20;;;;;;;3.63;2.40;;;;;;;23.58;42.35;100366.75;4148448;28;20232;-69
2022/07/06 08:52:25;;;;;;;3.45;2.38;;;;;;;23.79;42.42;100360.00;4160279;28;20224;-70
2022/07/06 08:54:28;;;;;;;7.72;2.65;;;;;;;24.36;40.99;100361.38;4160411;28;20804;-70
2022/07/06 08:56:30;;;;;;;4.22;2.58;;;;;;;23.34;42.35;100380.19;4159241;28;20236;-69
2022/07/06 08:58:33;;;;;;;5.55;2.80;;;;;;;23.52;42.17;100376.63;4161056;28;20232;-68
2022/07/06 09:00:35;;;;;;;3.75;2.80;;;;;;;24.01;42.06;100362.97;4161295;28;20717;-69
2022/07/06 09:02:39;;;;;;;7.35;2.53;;;;;;;24.14;41.79;100356.47;4160028;28;20235;-68
2022/07/06 09:04:43;;;;;;;4.47;2.45;;;;;;;24.26;42.02;100349.22;4159936;28;20736;-68
2022/07/06 09:06:47;;;;;;;4.18;2.35;;;;;;;23.84;43.29;100354.69;4144889;28;20245;-68
2022/07/06 09:08:52;;;;;;;3.03;2.30;;;;;;;23.62;42.54;100364.41;4136693;28;20592;-69
2022/07/06 09:10:54;;;;;;;4.07;2.40;;;;;;;23.69;42.58;100365.16;4144937;28;20240;-69
2022/07/06 09:13:09;;;;;;;5.40;2.40;;;;;;;23.45;42.76;100362.31;4143916;28;20237;-68
2022/07/06 09:15:11;;;;;;;5.70;2.85;;;;;;;23.47;42.42;100368.34;4146240;28;20228;-68
2022/07/06 09:17:13;;;;;;;3.85;2.60;;;;;;;24.65;41.22;100349.56;4160670;28;20238;-69
2022/07/06 09:19:18;;;;;;;3.80;2.30;;;;;;;24.71;42.46;100360.53;4160127;28;20233;-68
2022/07/06 09:21:30;;;;;;;5.15;2.50;;;;;;;25.07;41.77;100348.56;4155253;28;20229;-69
2022/07/06 09:23:33;;;;;;;4.28;2.63;;;;;;;25.03;41.86;100353.63;4142460;28;20264;-68
2022/07/06 09:25:35;;;;;;;3.67;2.67;;;;;;;24.41;42.22;100361.50;4142761;28;20280;-69
2022/07/06 09:27:39;;;;;;;5.50;2.50;;;;;;;24.90;41.60;100362.06;4144492;28;20813;-68
2022/07/06 09:29:41;;;;;;;6.20;2.65;;;;;;;24.64;41.29;100366.91;4144442;28;20237;-69
2022/07/06 09:31:55;;;;;;;4.40;2.60;;;;;;;24.31;42.22;100368.38;4143912;28;20233;-69